createdAt,value
2018-10-07T00:00:50.392Z,92.24
2018-10-07T00:03:18.905Z,91.98
2018-10-07T00:05:47.518Z,91.24
2018-10-07T00:08:16.071Z,91.80
2018-10-07T00:10:44.699Z,91.31
2018-10-07T00:13:13.195Z,91.53
2018-10-07T00:15:41.731Z,90.60
2018-10-07T00:18:10.897Z,90.42
2018-10-07T00:20:39.410Z,90.35
2018-10-07T00:23:08.670Z,90.86
2018-10-07T00:25:37.149Z,91.18
2018-10-07T00:28:06.155Z,91.04
2018-10-07T00:30:34.635Z,90.90
2018-10-07T00:33:03.209Z,91.26
2018-10-07T00:35:31.727Z,90.83
2018-10-07T00:38:00.218Z,91.08
2018-10-07T00:40:28.791Z,90.72
2018-10-07T00:42:57.301Z,90.96
2018-10-07T00:45:26.490Z,90.76
2018-10-07T00:47:55.008Z,90.75
2018-10-07T00:50:23.534Z,90.69
2018-10-07T00:52:52.590Z,89.95
2018-10-07T00:55:21.155Z,88.77
2018-10-07T00:57:49.723Z,88.21
2018-10-07T01:00:18.285Z,88.29
2018-10-07T01:02:46.833Z,87.91
2018-10-07T01:05:15.404Z,87.53
2018-10-07T01:07:43.918Z,86.97
2018-10-07T01:10:12.454Z,86.89
2018-10-07T01:12:40.974Z,86.21
2018-10-07T01:15:09.599Z,86.46
2018-10-07T01:17:38.078Z,85.44
2018-10-07T01:20:06.696Z,85.58
2018-10-07T01:22:35.186Z,85.49
2018-10-07T01:25:03.681Z,85.65
2018-10-07T01:27:32.226Z,85.00
2018-10-07T01:30:00.799Z,85.24
2018-10-07T01:32:29.349Z,85.43
2018-10-07T01:34:57.887Z,85.72
2018-10-07T01:37:26.401Z,85.90
2018-10-07T01:39:54.930Z,85.52
2018-10-07T01:42:23.461Z,86.04
2018-10-07T01:44:51.952Z,85.73
2018-10-07T01:47:20.447Z,85.81
2018-10-07T01:49:48.934Z,86.05
2018-10-07T01:52:17.438Z,86.01
2018-10-07T01:54:45.950Z,86.09
2018-10-07T01:57:14.505Z,86.32
2018-10-07T01:59:43.063Z,85.73
2018-10-07T02:02:11.644Z,85.78
2018-10-07T02:04:40.189Z,85.51
2018-10-07T02:07:08.844Z,85.19
2018-10-07T02:09:37.406Z,85.04
2018-10-07T02:12:05.929Z,84.96
2018-10-07T02:14:34.433Z,85.20
2018-10-07T02:17:02.933Z,85.35
2018-10-07T02:19:31.437Z,85.65
2018-10-07T02:22:00.029Z,85.20
2018-10-07T02:24:28.512Z,85.50
2018-10-07T02:26:57.029Z,85.30
2018-10-07T02:29:26.112Z,84.44
2018-10-07T02:31:54.609Z,84.83
2018-10-07T02:34:23.736Z,85.13
2018-10-07T02:36:52.356Z,85.15
2018-10-07T02:39:21.590Z,84.80
2018-10-07T02:41:50.169Z,84.50
2018-10-07T02:44:18.689Z,83.98
2018-10-07T02:46:47.242Z,84.19
2018-10-07T02:49:15.792Z,83.83
2018-10-07T02:51:44.411Z,84.25
2018-10-07T02:54:12.931Z,83.78
2018-10-07T02:56:41.464Z,83.82
2018-10-07T02:59:10.269Z,84.49
2018-10-07T03:01:38.761Z,85.03
2018-10-07T03:04:07.329Z,84.63
2018-10-07T03:06:36.874Z,84.70
2018-10-07T03:09:08.726Z,85.37
2018-10-07T03:11:37.284Z,84.99
2018-10-07T03:14:05.898Z,85.82
2018-10-07T03:16:34.470Z,86.09
2018-10-07T03:19:03.250Z,86.18
2018-10-07T03:21:32.286Z,87.30
2018-10-07T03:24:06.912Z,87.35
2018-10-07T03:26:35.455Z,87.89
2018-10-07T03:29:03.970Z,87.59
2018-10-07T03:31:32.426Z,87.26
2018-10-07T03:34:00.944Z,86.80
2018-10-07T03:36:29.447Z,86.61
2018-10-07T03:38:57.937Z,86.76
2018-10-07T03:41:26.533Z,85.96
2018-10-07T03:43:55.001Z,84.98
2018-10-07T03:46:23.534Z,85.25
2018-10-07T03:48:52.004Z,85.06
2018-10-07T03:51:20.546Z,85.61
2018-10-07T03:53:49.187Z,85.22
2018-10-07T03:56:17.682Z,85.22
2018-10-07T03:58:46.207Z,85.28
2018-10-07T04:01:15.705Z,85.28
2018-10-07T04:03:44.422Z,85.38
2018-10-07T04:06:13.015Z,84.73
2018-10-07T04:08:41.531Z,84.48
2018-10-07T04:11:11.337Z,84.49
2018-10-07T04:13:39.900Z,84.59
2018-10-07T04:16:09.294Z,85.01
2018-10-07T04:18:37.853Z,84.48
2018-10-07T04:21:06.405Z,84.64
2018-10-07T04:23:34.955Z,84.86
2018-10-07T04:26:03.539Z,84.92
2018-10-07T04:28:32.066Z,84.60
2018-10-07T04:31:00.586Z,84.83
2018-10-07T04:33:29.078Z,83.75
2018-10-07T04:35:57.598Z,83.73
2018-10-07T04:38:26.885Z,83.65
2018-10-07T04:40:55.425Z,84.28
2018-10-07T04:43:24.439Z,84.53
2018-10-07T04:45:52.932Z,83.34
2018-10-07T04:48:21.490Z,83.46
2018-10-07T04:50:50.003Z,83.12
2018-10-07T04:53:18.569Z,83.22
2018-10-07T04:55:47.604Z,82.63
2018-10-07T04:58:17.014Z,82.49
2018-10-07T05:00:45.550Z,83.01
2018-10-07T05:03:14.017Z,82.75
2018-10-07T05:05:42.682Z,83.10
2018-10-07T05:08:11.222Z,82.73
2018-10-07T05:10:48.863Z,83.13
2018-10-07T05:13:27.535Z,83.33
2018-10-07T05:15:59.456Z,84.07
2018-10-07T05:18:28.138Z,84.57
2018-10-07T05:20:56.770Z,84.78
2018-10-07T05:23:25.263Z,84.91
2018-10-07T05:25:53.773Z,84.71
2018-10-07T05:28:22.277Z,84.69
2018-10-07T05:30:50.774Z,84.95
2018-10-07T05:33:19.297Z,85.33
2018-10-07T05:35:47.829Z,85.90
2018-10-07T05:38:16.348Z,86.36
2018-10-07T05:40:44.860Z,86.25
2018-10-07T05:43:13.421Z,86.34
2018-10-07T05:45:41.986Z,86.83
2018-10-07T05:48:10.556Z,86.94
2018-10-07T05:50:39.116Z,86.76
2018-10-07T05:53:07.652Z,87.70
2018-10-07T05:55:36.155Z,87.83
2018-10-07T05:58:05.887Z,88.35
2018-10-07T06:00:35.506Z,88.40
2018-10-07T06:03:24.546Z,89.19
2018-10-07T06:05:53.289Z,88.82
2018-10-07T06:08:22.642Z,88.90
2018-10-07T06:10:51.226Z,89.12
2018-10-07T06:13:20.529Z,88.45
2018-10-07T06:15:49.742Z,88.66
2018-10-07T06:18:18.242Z,88.46
2018-10-07T06:20:46.894Z,88.83
2018-10-07T06:23:15.459Z,88.85
2018-10-07T06:25:44.016Z,89.03
2018-10-07T06:28:12.515Z,89.02
2018-10-07T06:30:41.002Z,89.29
2018-10-07T06:33:10.442Z,88.65
2018-10-07T06:35:38.942Z,89.04
2018-10-07T06:38:08.385Z,88.90
2018-10-07T06:40:36.898Z,88.55
2018-10-07T06:43:05.450Z,89.07
2018-10-07T06:45:34.042Z,88.84
2018-10-07T06:48:02.555Z,88.92
2018-10-07T06:50:31.213Z,89.00
2018-10-07T06:52:59.774Z,88.56
2018-10-07T06:55:28.343Z,87.78
2018-10-07T06:57:56.878Z,87.28
2018-10-07T07:00:25.443Z,86.81
2018-10-07T07:02:54.044Z,86.90
2018-10-07T07:05:22.555Z,86.47
2018-10-07T07:07:51.209Z,85.06
2018-10-07T07:10:19.849Z,84.03
2018-10-07T07:12:48.383Z,83.79
2018-10-07T07:15:16.963Z,83.49
2018-10-07T07:17:45.538Z,83.28
2018-10-07T07:20:14.057Z,82.63
2018-10-07T07:22:42.635Z,81.85
2018-10-07T07:25:11.150Z,81.08
2018-10-07T07:27:39.733Z,80.50
2018-10-07T07:30:08.286Z,80.21
2018-10-07T07:32:36.864Z,79.67
2018-10-07T07:35:05.413Z,79.83
2018-10-07T07:37:33.904Z,78.79
2018-10-07T07:40:02.414Z,78.64
2018-10-07T07:42:37.282Z,77.20
2018-10-07T07:45:05.806Z,77.55
2018-10-07T07:47:35.244Z,77.41
2018-10-07T07:50:03.843Z,78.23
2018-10-07T07:52:32.314Z,77.42
2018-10-07T07:55:00.823Z,77.71
2018-10-07T07:57:29.318Z,76.66
2018-10-07T07:59:57.933Z,76.87
2018-10-07T08:02:27.345Z,76.77
2018-10-07T08:04:56.416Z,77.74
2018-10-07T08:07:25.070Z,76.97
2018-10-07T08:09:53.573Z,75.52
2018-10-07T08:12:22.116Z,76.36
2018-10-07T08:14:50.634Z,76.97
2018-10-07T08:17:19.248Z,75.89
2018-10-07T08:19:48.650Z,76.42
2018-10-07T08:22:17.390Z,76.49
2018-10-07T08:24:45.930Z,74.45
2018-10-07T08:27:14.406Z,75.01
2018-10-07T08:29:43.009Z,74.11
2018-10-07T08:32:11.532Z,73.62
2018-10-07T08:34:40.033Z,74.19
2018-10-07T08:37:08.565Z,73.78
2018-10-07T08:39:37.109Z,73.74
2018-10-07T08:42:05.630Z,73.93
2018-10-07T08:44:34.205Z,72.92
2018-10-07T08:47:02.921Z,73.46
2018-10-07T08:49:31.611Z,73.66
2018-10-07T08:52:01.808Z,72.96
2018-10-07T08:54:30.281Z,72.66
2018-10-07T08:56:59.487Z,71.43
2018-10-07T08:59:27.975Z,72.06
2018-10-07T09:01:56.545Z,71.27
2018-10-07T09:04:25.096Z,69.72
2018-10-07T09:06:53.675Z,70.72
2018-10-07T09:09:22.217Z,71.08
2018-10-07T09:11:50.765Z,70.90
2018-10-07T09:14:19.278Z,70.28
2018-10-07T09:16:47.805Z,69.62
2018-10-07T09:19:16.282Z,68.85
2018-10-07T09:21:44.747Z,69.21
2018-10-07T09:24:13.335Z,66.92
2018-10-07T09:26:41.922Z,67.56
2018-10-07T09:29:10.426Z,65.61
2018-10-07T09:31:38.913Z,65.62
2018-10-07T09:34:07.481Z,65.26
2018-10-07T09:36:35.989Z,64.35
2018-10-07T09:39:06.365Z,63.41
2018-10-07T09:41:34.861Z,63.50
2018-10-07T09:44:03.361Z,63.62
2018-10-07T09:46:32.053Z,65.14
2018-10-07T09:49:00.650Z,64.70
2018-10-07T09:51:29.206Z,64.24
2018-10-07T09:53:57.755Z,62.68
2018-10-07T09:56:26.311Z,63.00
2018-10-07T09:58:54.831Z,62.38
2018-10-07T10:01:23.357Z,62.49
2018-10-07T10:03:51.966Z,62.07
2018-10-07T10:06:20.590Z,63.11
2018-10-07T10:08:49.101Z,64.59
2018-10-07T10:11:17.746Z,63.34
2018-10-07T10:13:46.169Z,63.72
2018-10-07T10:16:14.825Z,61.48
2018-10-07T10:18:48.542Z,61.49
2018-10-07T10:21:35.190Z,62.20
2018-10-07T10:24:12.230Z,63.17
2018-10-07T10:27:52.789Z,62.86
2018-10-07T10:30:48.954Z,63.66
2018-10-07T10:33:31.711Z,63.37
2018-10-07T10:36:09.628Z,62.03
2018-10-07T10:38:42.911Z,60.53
2018-10-07T10:41:46.332Z,60.87
2018-10-07T10:44:24.528Z,61.20
2018-10-07T10:47:12.197Z,59.39
2018-10-07T10:49:55.923Z,57.90
2018-10-07T10:52:30.333Z,57.60
2018-10-07T10:55:36.744Z,58.16
2018-10-07T10:58:39.163Z,57.71
2018-10-07T11:01:13.924Z,57.46
2018-10-07T11:03:49.557Z,58.20
2018-10-07T11:09:32.060Z,57.77
2018-10-07T11:12:03.779Z,56.77
2018-10-07T11:15:15.732Z,56.86
2018-10-07T11:18:21.733Z,58.29
2018-10-07T11:23:00.598Z,58.77
2018-10-07T11:27:46.863Z,58.53
2018-10-07T11:30:27.054Z,59.11
2018-10-07T11:33:09.337Z,57.84
2018-10-07T11:35:54.418Z,58.17
2018-10-07T11:38:29.746Z,57.52
2018-10-07T11:43:40.445Z,57.63
2018-10-07T11:47:17.931Z,58.43
2018-10-07T11:49:59.453Z,57.13
2018-10-07T11:52:48.668Z,57.94
2018-10-07T11:55:17.285Z,56.83
2018-10-07T11:57:45.801Z,57.04
2018-10-07T12:00:14.438Z,56.70
2018-10-07T12:02:43.037Z,57.12
2018-10-07T12:05:11.546Z,56.43
2018-10-07T12:07:40.174Z,56.29
2018-10-07T12:10:08.879Z,55.83
2018-10-07T12:12:37.437Z,54.71
2018-10-07T12:15:06.050Z,53.72
2018-10-07T12:17:34.651Z,52.99
2018-10-07T12:20:03.152Z,51.43
2018-10-07T12:22:31.645Z,50.84
2018-10-07T12:25:00.206Z,51.11
2018-10-07T12:27:29.197Z,49.25
2018-10-07T12:29:57.745Z,51.01
2018-10-07T12:32:26.234Z,51.12
2018-10-07T12:34:54.778Z,53.14
2018-10-07T12:37:23.234Z,52.92
2018-10-07T12:39:54.621Z,53.76
2018-10-07T12:42:23.150Z,54.37
2018-10-07T12:44:51.702Z,54.54
2018-10-07T12:47:20.287Z,53.73
2018-10-07T12:49:48.774Z,54.98
2018-10-07T12:52:17.289Z,56.32
2018-10-07T12:54:45.901Z,55.74
2018-10-07T12:57:14.430Z,55.64
2018-10-07T12:59:42.929Z,57.48
2018-10-07T13:02:11.492Z,55.91
2018-10-07T13:04:40.234Z,56.00
2018-10-07T13:07:08.742Z,55.75
2018-10-07T13:09:37.343Z,55.66
2018-10-07T13:12:05.779Z,54.47
2018-10-07T13:14:34.430Z,51.24
2018-10-07T13:17:02.983Z,49.10
2018-10-07T13:19:31.627Z,49.14
2018-10-07T13:22:00.280Z,49.26
2018-10-07T13:24:28.844Z,46.08
2018-10-07T13:26:57.453Z,47.68
2018-10-07T13:29:26.104Z,47.68
2018-10-07T13:31:54.617Z,48.15
2018-10-07T13:34:23.234Z,49.85
2018-10-07T13:36:51.886Z,50.53
2018-10-07T13:39:20.526Z,51.23
2018-10-07T13:41:49.061Z,51.42
2018-10-07T13:44:17.609Z,52.75
2018-10-07T13:46:46.209Z,53.04
2018-10-07T13:49:14.818Z,53.96
2018-10-07T13:51:43.461Z,54.76
2018-10-07T13:54:11.982Z,53.92
2018-10-07T13:56:40.505Z,53.71
2018-10-07T13:59:09.013Z,53.45
2018-10-07T14:01:37.634Z,53.48
2018-10-07T14:04:06.505Z,53.28
2018-10-07T14:06:35.114Z,50.25
2018-10-07T14:09:04.534Z,50.27
2018-10-07T14:11:33.190Z,49.71
2018-10-07T14:14:01.737Z,49.40
2018-10-07T14:16:36.886Z,50.01
2018-10-07T14:19:05.485Z,49.24
2018-10-07T14:21:34.290Z,48.85
2018-10-07T14:24:02.928Z,49.25
2018-10-07T14:26:31.426Z,49.62
2018-10-07T14:29:00.018Z,50.84
2018-10-07T14:31:28.630Z,51.52
2018-10-07T14:33:57.478Z,52.17
2018-10-07T14:36:26.047Z,51.84
2018-10-07T14:38:54.658Z,52.21
2018-10-07T14:41:23.194Z,52.00
2018-10-07T14:43:51.827Z,51.89
2018-10-07T14:46:20.310Z,52.36
2018-10-07T14:48:48.806Z,52.67
2018-10-07T14:51:17.461Z,52.71
2018-10-07T14:53:45.992Z,54.22
2018-10-07T14:56:14.682Z,52.90
2018-10-07T14:58:43.246Z,53.05
2018-10-07T15:01:11.835Z,55.31
2018-10-07T15:03:40.382Z,54.43
2018-10-07T15:06:08.913Z,56.21
2018-10-07T15:08:37.539Z,55.45
2018-10-07T15:11:06.102Z,54.79
2018-10-07T15:13:34.722Z,53.86
2018-10-07T15:16:03.278Z,54.55
2018-10-07T15:18:31.733Z,53.40
2018-10-07T15:21:00.359Z,51.85
2018-10-07T15:23:28.880Z,52.90
2018-10-07T15:25:57.491Z,52.88
2018-10-07T15:28:25.973Z,53.00
2018-10-07T15:30:54.546Z,53.32
2018-10-07T15:33:23.027Z,53.86
2018-10-07T15:35:51.595Z,54.73
2018-10-07T15:38:20.207Z,54.73
2018-10-07T15:40:48.689Z,53.56
2018-10-07T15:43:17.213Z,54.60
2018-10-07T15:45:45.713Z,54.70
2018-10-07T15:48:14.231Z,54.97
2018-10-07T15:50:42.818Z,54.29
2018-10-07T15:53:11.313Z,54.68
2018-10-07T15:55:39.812Z,55.47
2018-10-07T15:58:08.385Z,54.44
2018-10-07T16:00:36.906Z,54.79
2018-10-07T16:03:05.407Z,53.78
2018-10-07T16:05:34.023Z,57.30
2018-10-07T16:08:02.585Z,58.15
2018-10-07T16:10:31.122Z,58.16
2018-10-07T16:12:59.777Z,57.67
2018-10-07T16:15:28.270Z,58.91
2018-10-07T16:17:56.861Z,61.74
2018-10-07T16:20:25.431Z,61.59
2018-10-07T16:22:54.021Z,65.11
2018-10-07T16:25:22.569Z,65.28
2018-10-07T16:27:51.094Z,66.62
2018-10-07T16:30:19.707Z,68.25
2018-10-07T16:32:48.259Z,68.70
2018-10-07T16:35:16.817Z,69.51
2018-10-07T16:37:45.310Z,69.37
2018-10-07T16:40:13.783Z,70.00
2018-10-07T16:42:42.315Z,67.61
2018-10-07T16:45:10.949Z,68.17
2018-10-07T16:47:39.631Z,69.32
2018-10-07T16:50:08.164Z,70.41
2018-10-07T16:52:36.683Z,70.73
2018-10-07T16:55:05.398Z,71.86
2018-10-07T16:57:33.981Z,73.01
2018-10-07T17:00:02.653Z,73.41
2018-10-07T17:02:31.159Z,74.42
2018-10-07T17:04:59.655Z,75.20
2018-10-07T17:07:28.201Z,75.50
2018-10-07T17:09:56.803Z,75.98
2018-10-07T17:12:25.313Z,76.49
2018-10-07T17:14:53.885Z,77.12
2018-10-07T17:17:22.414Z,77.94
2018-10-07T17:19:50.877Z,77.78
2018-10-07T17:22:19.660Z,78.53
2018-10-07T17:24:48.284Z,78.75
2018-10-07T17:27:17.189Z,79.26
2018-10-07T17:29:45.594Z,78.95
2018-10-07T17:32:17.910Z,79.11
2018-10-07T17:34:46.399Z,79.20
2018-10-07T17:37:14.963Z,78.95
2018-10-07T17:39:43.504Z,79.08
2018-10-07T17:42:12.001Z,79.03
2018-10-07T17:44:40.541Z,79.26
2018-10-07T17:47:09.077Z,78.98
2018-10-07T17:49:37.594Z,79.13
2018-10-07T17:52:06.172Z,78.78
2018-10-07T17:54:34.815Z,78.37
2018-10-07T17:57:03.305Z,78.35
2018-10-07T17:59:31.842Z,78.07
2018-10-07T18:02:00.409Z,78.48
2018-10-07T18:04:29.253Z,78.57
2018-10-07T18:06:57.871Z,78.18
2018-10-07T18:09:26.338Z,78.65
2018-10-07T18:11:54.967Z,78.72
2018-10-07T18:14:23.471Z,79.50
2018-10-07T18:16:51.961Z,79.62
2018-10-07T18:19:20.564Z,79.02
2018-10-07T18:21:49.080Z,78.99
2018-10-07T18:24:17.565Z,78.93
2018-10-07T18:26:46.027Z,79.86
2018-10-07T18:29:14.534Z,80.49
2018-10-07T18:31:43.098Z,80.48
2018-10-07T18:34:11.680Z,80.04
2018-10-07T18:36:40.183Z,80.17
2018-10-07T18:39:09.371Z,80.36
2018-10-07T18:41:38.920Z,80.88
2018-10-07T18:44:07.449Z,81.27
2018-10-07T18:46:35.997Z,80.87
2018-10-07T18:49:04.951Z,80.03
2018-10-07T18:51:33.428Z,80.55
2018-10-07T18:54:01.959Z,80.13
2018-10-07T18:56:30.499Z,80.09
2018-10-07T18:58:59.041Z,80.36
2018-10-07T19:01:27.551Z,80.07
2018-10-07T19:03:56.191Z,80.01
2018-10-07T19:06:24.827Z,80.30
2018-10-07T19:08:53.329Z,81.20
2018-10-07T19:11:21.799Z,80.36
2018-10-07T19:13:50.327Z,80.00
2018-10-07T19:16:18.833Z,80.35
2018-10-07T19:18:47.362Z,80.81
2018-10-07T19:21:15.938Z,81.02
2018-10-07T19:23:44.525Z,81.14
2018-10-07T19:26:13.052Z,80.74
2018-10-07T19:28:44.439Z,80.99
2018-10-07T19:31:13.083Z,80.72
2018-10-07T19:33:41.606Z,81.43
2018-10-07T19:36:10.207Z,81.30
2018-10-07T19:38:38.690Z,81.22
2018-10-07T19:41:07.311Z,81.31
2018-10-07T19:43:35.915Z,82.18
2018-10-07T19:46:04.385Z,82.60
2018-10-07T19:48:32.853Z,83.08
2018-10-07T19:51:01.318Z,83.85
2018-10-07T19:53:29.940Z,83.74
2018-10-07T19:55:58.569Z,83.00
2018-10-07T19:58:27.110Z,83.70
2018-10-07T20:00:55.912Z,83.46
2018-10-07T20:03:24.658Z,82.35
2018-10-07T20:05:53.125Z,82.06
2018-10-07T20:08:21.703Z,81.60
2018-10-07T20:10:50.303Z,81.82
2018-10-07T20:13:18.872Z,82.26
2018-10-07T20:15:47.447Z,82.17
2018-10-07T20:18:16.092Z,82.31
2018-10-07T20:20:44.522Z,81.75
2018-10-07T20:23:13.017Z,81.47
2018-10-07T20:25:41.535Z,82.13
2018-10-07T20:28:10.048Z,82.49
2018-10-07T20:30:38.548Z,81.96
2018-10-07T20:33:07.017Z,82.04
2018-10-07T20:35:35.513Z,81.83
2018-10-07T20:38:03.969Z,81.58
2018-10-07T20:40:32.659Z,81.88
2018-10-07T20:43:01.080Z,82.82
2018-10-07T20:45:29.590Z,83.51
2018-10-07T20:47:58.093Z,83.16
2018-10-07T20:50:26.593Z,83.01
2018-10-07T20:52:55.057Z,83.59
2018-10-07T20:55:23.616Z,83.58
2018-10-07T20:57:52.107Z,83.29
2018-10-07T21:00:20.696Z,82.74
2018-10-07T21:02:49.246Z,82.28
2018-10-07T21:05:17.760Z,82.53
2018-10-07T21:07:46.274Z,82.32
2018-10-07T21:10:14.791Z,82.64
2018-10-07T21:12:43.266Z,82.38
2018-10-07T21:15:11.802Z,82.50
2018-10-07T21:17:40.270Z,83.26
2018-10-07T21:20:08.812Z,83.49
2018-10-07T21:22:37.358Z,83.58
2018-10-07T21:25:06.068Z,83.57
2018-10-07T21:27:34.562Z,83.37
2018-10-07T21:30:03.090Z,83.11
2018-10-07T21:32:31.663Z,83.01
2018-10-07T21:35:00.306Z,82.93
2018-10-07T21:37:29.109Z,83.49
2018-10-07T21:39:57.649Z,83.50
2018-10-07T21:42:26.230Z,83.89
2018-10-07T21:44:54.778Z,84.24
2018-10-07T21:47:23.311Z,84.76
2018-10-07T21:49:51.790Z,83.81
2018-10-07T21:52:20.285Z,83.56
2018-10-07T21:54:48.915Z,83.74
2018-10-07T21:57:17.473Z,84.54
2018-10-07T21:59:45.942Z,85.12
2018-10-07T22:02:14.475Z,85.44
2018-10-07T22:04:43.093Z,85.02
2018-10-07T22:07:11.600Z,84.76
2018-10-07T22:09:40.183Z,83.96
2018-10-07T22:12:08.687Z,83.63
2018-10-07T22:14:37.234Z,83.15
2018-10-07T22:17:05.709Z,83.67
2018-10-07T22:19:34.198Z,84.06
2018-10-07T22:22:02.725Z,84.29
2018-10-07T22:24:31.189Z,84.19
2018-10-07T22:26:59.754Z,84.51
2018-10-07T22:29:28.249Z,84.70
2018-10-07T22:31:56.735Z,84.22
2018-10-07T22:34:25.337Z,84.40
2018-10-07T22:36:53.785Z,84.28
2018-10-07T22:39:22.275Z,84.77
2018-10-07T22:41:50.849Z,84.30
2018-10-07T22:44:19.393Z,84.27
2018-10-07T22:46:47.931Z,84.19
2018-10-07T22:49:16.457Z,83.92
2018-10-07T22:51:45.030Z,84.03
2018-10-07T22:54:13.489Z,84.02
2018-10-07T22:56:41.979Z,84.47
2018-10-07T22:59:10.534Z,84.29
2018-10-07T23:01:39.131Z,83.73
2018-10-07T23:04:07.705Z,84.74
2018-10-07T23:06:36.189Z,85.35
2018-10-07T23:09:07.250Z,85.05
2018-10-07T23:11:35.763Z,84.42
2018-10-07T23:14:04.326Z,83.50
2018-10-07T23:16:32.859Z,84.20
2018-10-07T23:19:01.364Z,85.23
2018-10-07T23:21:29.881Z,86.17
2018-10-07T23:23:58.372Z,86.62
2018-10-07T23:26:26.897Z,87.12
2018-10-07T23:28:55.440Z,86.68
2018-10-07T23:31:23.926Z,85.76
2018-10-07T23:33:52.420Z,85.21
2018-10-07T23:36:20.983Z,84.73
2018-10-07T23:38:49.482Z,85.42
2018-10-07T23:41:18.121Z,86.22
2018-10-07T23:43:46.971Z,86.66
2018-10-07T23:46:15.521Z,87.04
2018-10-07T23:48:44.042Z,87.08
2018-10-07T23:51:12.579Z,85.86
2018-10-07T23:53:41.082Z,84.95
2018-10-07T23:56:09.571Z,85.69
2018-10-07T23:58:38.074Z,85.90
